sensor_id;sensor_type;location;lat;lon;timestamp;P1;durP1;ratioP1;P2;durP2;ratioP2
72924;SDS011;61070;50.794;7.054;2023-06-22T00:01:01;10.95;;;7.00;;
72924;SDS011;61070;50.794;7.054;2023-06-22T00:03:26;18.48;;;7.55;;
72924;SDS011;61070;50.794;7.054;2023-06-22T00:05:51;18.95;;;7.60;;
72924;SDS011;61070;50.794;7.054;2023-06-22T00:08:18;12.98;;;7.50;;
72924;SDS011;61070;50.794;7.054;2023-06-22T00:10:44;12.95;;;6.90;;
72924;SDS011;61070;50.794;7.054;2023-06-22T00:13:10;17.30;;;7.25;;
72924;SDS011;61070;50.794;7.054;2023-06-22T00:15:38;19.67;;;7.30;;
72924;SDS011;61070;50.794;7.054;2023-06-22T00:18:04;11.68;;;7.18;;
72924;SDS011;61070;50.794;7.054;2023-06-22T00:20:31;11.80;;;6.97;;
72924;SDS011;61070;50.794;7.054;2023-06-22T00:22:57;17.20;;;7.22;;
72924;SDS011;61070;50.794;7.054;2023-06-22T00:25:24;16.83;;;6.88;;
72924;SDS011;61070;50.794;7.054;2023-06-22T00:27:49;14.55;;;7.15;;
72924;SDS011;61070;50.794;7.054;2023-06-22T00:30:15;13.93;;;7.80;;
72924;SDS011;61070;50.794;7.054;2023-06-22T00:32:42;13.57;;;7.28;;
72924;SDS011;61070;50.794;7.054;2023-06-22T00:35:08;16.63;;;7.78;;
72924;SDS011;61070;50.794;7.054;2023-06-22T00:37:34;17.13;;;8.00;;
72924;SDS011;61070;50.794;7.054;2023-06-22T00:40:00;12.32;;;7.90;;
72924;SDS011;61070;50.794;7.054;2023-06-22T00:42:26;11.10;;;8.35;;
72924;SDS011;61070;50.794;7.054;2023-06-22T00:44:51;9.50;;;7.70;;
72924;SDS011;61070;50.794;7.054;2023-06-22T00:47:17;15.37;;;7.83;;
72924;SDS011;61070;50.794;7.054;2023-06-22T00:49:43;15.65;;;7.70;;
72924;SDS011;61070;50.794;7.054;2023-06-22T00:52:10;16.77;;;8.45;;
72924;SDS011;61070;50.794;7.054;2023-06-22T00:54:39;11.87;;;7.50;;
72924;SDS011;61070;50.794;7.054;2023-06-22T00:57:10;14.80;;;8.15;;
72924;SDS011;61070;50.794;7.054;2023-06-22T00:59:37;13.13;;;7.32;;
72924;SDS011;61070;50.794;7.054;2023-06-22T01:02:04;13.40;;;8.07;;
72924;SDS011;61070;50.794;7.054;2023-06-22T01:04:36;16.05;;;7.88;;
72924;SDS011;61070;50.794;7.054;2023-06-22T01:09:34;13.00;;;7.88;;
72924;SDS011;61070;50.794;7.054;2023-06-22T01:12:08;10.30;;;7.38;;
72924;SDS011;61070;50.794;7.054;2023-06-22T01:17:08;13.48;;;8.15;;
72924;SDS011;61070;50.794;7.054;2023-06-22T01:19:45;11.70;;;7.80;;
72924;SDS011;61070;50.794;7.054;2023-06-22T01:22:13;14.98;;;7.03;;
72924;SDS011;61070;50.794;7.054;2023-06-22T01:29:48;11.48;;;7.03;;
72924;SDS011;61070;50.794;7.054;2023-06-22T01:32:16;13.80;;;7.37;;
72924;SDS011;61070;50.794;7.054;2023-06-22T01:34:42;13.05;;;7.28;;
72924;SDS011;61070;50.794;7.054;2023-06-22T01:37:08;17.90;;;8.30;;
72924;SDS011;61070;50.794;7.054;2023-06-22T01:39:34;14.30;;;8.07;;
72924;SDS011;61070;50.794;7.054;2023-06-22T01:42:00;12.05;;;8.57;;
72924;SDS011;61070;50.794;7.054;2023-06-22T01:44:27;14.15;;;7.78;;
72924;SDS011;61070;50.794;7.054;2023-06-22T01:46:53;14.93;;;7.88;;
72924;SDS011;61070;50.794;7.054;2023-06-22T01:49:19;15.05;;;7.60;;
72924;SDS011;61070;50.794;7.054;2023-06-22T01:51:44;16.48;;;7.97;;
72924;SDS011;61070;50.794;7.054;2023-06-22T01:54:10;17.17;;;7.70;;
72924;SDS011;61070;50.794;7.054;2023-06-22T01:56:35;16.35;;;8.45;;
72924;SDS011;61070;50.794;7.054;2023-06-22T02:01:57;13.88;;;8.23;;
72924;SDS011;61070;50.794;7.054;2023-06-22T02:04:37;12.68;;;7.22;;
72924;SDS011;61070;50.794;7.054;2023-06-22T02:07:09;12.63;;;7.88;;
72924;SDS011;61070;50.794;7.054;2023-06-22T02:09:38;14.40;;;7.65;;
72924;SDS011;61070;50.794;7.054;2023-06-22T02:12:09;9.13;;;7.60;;
72924;SDS011;61070;50.794;7.054;2023-06-22T02:14:37;15.82;;;7.93;;
72924;SDS011;61070;50.794;7.054;2023-06-22T02:17:04;10.63;;;7.85;;
72924;SDS011;61070;50.794;7.054;2023-06-22T02:19:32;12.23;;;7.40;;
72924;SDS011;61070;50.794;7.054;2023-06-22T02:22:01;13.00;;;7.07;;
72924;SDS011;61070;50.794;7.054;2023-06-22T02:24:26;11.40;;;7.53;;
72924;SDS011;61070;50.794;7.054;2023-06-22T02:26:52;13.00;;;8.48;;
72924;SDS011;61070;50.794;7.054;2023-06-22T02:29:17;11.23;;;7.22;;
72924;SDS011;61070;50.794;7.054;2023-06-22T02:31:42;11.05;;;7.55;;
72924;SDS011;61070;50.794;7.054;2023-06-22T02:34:08;10.07;;;7.68;;
72924;SDS011;61070;50.794;7.054;2023-06-22T02:36:33;17.65;;;8.35;;
72924;SDS011;61070;50.794;7.054;2023-06-22T02:38:59;11.15;;;8.38;;
72924;SDS011;61070;50.794;7.054;2023-06-22T02:41:26;13.88;;;8.82;;
72924;SDS011;61070;50.794;7.054;2023-06-22T02:43:52;11.88;;;8.02;;
72924;SDS011;61070;50.794;7.054;2023-06-22T02:46:17;13.57;;;8.18;;
72924;SDS011;61070;50.794;7.054;2023-06-22T02:48:42;10.55;;;7.85;;
72924;SDS011;61070;50.794;7.054;2023-06-22T02:51:08;13.18;;;9.32;;
72924;SDS011;61070;50.794;7.054;2023-06-22T02:53:33;11.30;;;8.30;;
72924;SDS011;61070;50.794;7.054;2023-06-22T02:56:00;15.45;;;8.45;;
72924;SDS011;61070;50.794;7.054;2023-06-22T02:58:30;13.77;;;8.52;;
72924;SDS011;61070;50.794;7.054;2023-06-22T03:00:58;12.93;;;8.15;;
72924;SDS011;61070;50.794;7.054;2023-06-22T03:03:29;13.00;;;8.88;;
72924;SDS011;61070;50.794;7.054;2023-06-22T03:05:54;12.15;;;8.02;;
72924;SDS011;61070;50.794;7.054;2023-06-22T03:08:20;12.30;;;8.30;;
72924;SDS011;61070;50.794;7.054;2023-06-22T03:10:45;13.63;;;9.07;;
72924;SDS011;61070;50.794;7.054;2023-06-22T03:13:10;12.05;;;9.05;;
72924;SDS011;61070;50.794;7.054;2023-06-22T03:15:35;13.20;;;8.47;;
72924;SDS011;61070;50.794;7.054;2023-06-22T03:18:01;13.50;;;8.93;;
72924;SDS011;61070;50.794;7.054;2023-06-22T03:20:26;16.15;;;8.18;;
72924;SDS011;61070;50.794;7.054;2023-06-22T03:22:58;15.52;;;8.60;;
72924;SDS011;61070;50.794;7.054;2023-06-22T03:25:23;18.05;;;8.23;;
72924;SDS011;61070;50.794;7.054;2023-06-22T03:27:48;11.23;;;8.27;;
72924;SDS011;61070;50.794;7.054;2023-06-22T03:30:14;14.15;;;8.10;;
72924;SDS011;61070;50.794;7.054;2023-06-22T03:32:39;15.38;;;8.20;;
72924;SDS011;61070;50.794;7.054;2023-06-22T03:35:04;18.38;;;9.00;;
72924;SDS011;61070;50.794;7.054;2023-06-22T03:37:31;14.82;;;8.73;;
72924;SDS011;61070;50.794;7.054;2023-06-22T03:39:56;17.05;;;10.48;;
72924;SDS011;61070;50.794;7.054;2023-06-22T03:42:22;13.35;;;9.75;;
72924;SDS011;61070;50.794;7.054;2023-06-22T03:44:47;20.20;;;8.98;;
72924;SDS011;61070;50.794;7.054;2023-06-22T03:47:13;23.08;;;10.02;;
72924;SDS011;61070;50.794;7.054;2023-06-22T03:49:38;25.95;;;10.57;;
72924;SDS011;61070;50.794;7.054;2023-06-22T03:52:03;28.38;;;10.07;;
72924;SDS011;61070;50.794;7.054;2023-06-22T03:54:30;20.13;;;10.30;;
72924;SDS011;61070;50.794;7.054;2023-06-22T03:56:58;26.55;;;11.48;;
72924;SDS011;61070;50.794;7.054;2023-06-22T03:59:24;33.33;;;10.77;;
72924;SDS011;61070;50.794;7.054;2023-06-22T04:01:50;33.65;;;12.23;;
72924;SDS011;61070;50.794;7.054;2023-06-22T04:04:15;25.23;;;11.18;;
72924;SDS011;61070;50.794;7.054;2023-06-22T04:06:42;23.88;;;11.02;;
72924;SDS011;61070;50.794;7.054;2023-06-22T04:09:07;34.90;;;11.30;;
72924;SDS011;61070;50.794;7.054;2023-06-22T04:11:32;29.00;;;12.10;;
72924;SDS011;61070;50.794;7.054;2023-06-22T04:13:58;34.95;;;12.70;;
72924;SDS011;61070;50.794;7.054;2023-06-22T04:16:23;25.35;;;10.85;;
72924;SDS011;61070;50.794;7.054;2023-06-22T04:18:48;27.30;;;10.90;;
72924;SDS011;61070;50.794;7.054;2023-06-22T04:21:13;21.48;;;10.27;;
72924;SDS011;61070;50.794;7.054;2023-06-22T04:23:39;17.80;;;11.15;;
72924;SDS011;61070;50.794;7.054;2023-06-22T04:26:04;23.48;;;10.48;;
72924;SDS011;61070;50.794;7.054;2023-06-22T04:28:30;24.23;;;11.77;;
72924;SDS011;61070;50.794;7.054;2023-06-22T04:31:00;15.88;;;10.63;;
72924;SDS011;61070;50.794;7.054;2023-06-22T04:33:27;18.08;;;11.20;;
72924;SDS011;61070;50.794;7.054;2023-06-22T04:35:54;17.95;;;11.10;;
72924;SDS011;61070;50.794;7.054;2023-06-22T04:38:22;18.95;;;11.55;;
72924;SDS011;61070;50.794;7.054;2023-06-22T04:40:47;16.27;;;11.13;;
72924;SDS011;61070;50.794;7.054;2023-06-22T04:43:13;17.20;;;11.27;;
72924;SDS011;61070;50.794;7.054;2023-06-22T04:45:38;19.40;;;11.45;;
72924;SDS011;61070;50.794;7.054;2023-06-22T04:48:04;24.10;;;11.30;;
72924;SDS011;61070;50.794;7.054;2023-06-22T04:50:30;15.10;;;10.95;;
72924;SDS011;61070;50.794;7.054;2023-06-22T04:52:55;16.17;;;11.52;;
72924;SDS011;61070;50.794;7.054;2023-06-22T04:55:20;17.30;;;10.45;;
72924;SDS011;61070;50.794;7.054;2023-06-22T04:57:46;15.60;;;11.48;;
72924;SDS011;61070;50.794;7.054;2023-06-22T05:00:15;16.30;;;10.77;;
72924;SDS011;61070;50.794;7.054;2023-06-22T05:02:42;15.38;;;10.57;;
72924;SDS011;61070;50.794;7.054;2023-06-22T05:05:08;18.27;;;11.35;;
72924;SDS011;61070;50.794;7.054;2023-06-22T05:07:33;15.57;;;11.13;;
72924;SDS011;61070;50.794;7.054;2023-06-22T05:10:00;19.52;;;11.07;;
72924;SDS011;61070;50.794;7.054;2023-06-22T05:12:27;13.43;;;9.80;;
72924;SDS011;61070;50.794;7.054;2023-06-22T05:14:53;20.48;;;10.45;;
72924;SDS011;61070;50.794;7.054;2023-06-22T05:17:19;17.90;;;11.13;;
72924;SDS011;61070;50.794;7.054;2023-06-22T05:19:44;17.02;;;10.43;;
72924;SDS011;61070;50.794;7.054;2023-06-22T05:22:14;14.75;;;11.10;;
72924;SDS011;61070;50.794;7.054;2023-06-22T05:24:39;13.68;;;10.48;;
72924;SDS011;61070;50.794;7.054;2023-06-22T05:27:05;18.60;;;10.93;;
72924;SDS011;61070;50.794;7.054;2023-06-22T05:29:30;16.10;;;10.82;;
72924;SDS011;61070;50.794;7.054;2023-06-22T05:31:56;16.77;;;10.80;;
72924;SDS011;61070;50.794;7.054;2023-06-22T05:34:21;19.02;;;10.95;;
72924;SDS011;61070;50.794;7.054;2023-06-22T05:36:46;19.47;;;12.40;;
72924;SDS011;61070;50.794;7.054;2023-06-22T05:39:12;17.05;;;11.93;;
72924;SDS011;61070;50.794;7.054;2023-06-22T05:41:38;17.52;;;12.20;;
72924;SDS011;61070;50.794;7.054;2023-06-22T05:44:04;19.48;;;11.15;;
72924;SDS011;61070;50.794;7.054;2023-06-22T05:46:29;18.58;;;11.25;;
72924;SDS011;61070;50.794;7.054;2023-06-22T05:48:54;15.07;;;12.48;;
72924;SDS011;61070;50.794;7.054;2023-06-22T05:51:20;19.25;;;10.85;;
72924;SDS011;61070;50.794;7.054;2023-06-22T05:53:45;18.13;;;11.80;;
72924;SDS011;61070;50.794;7.054;2023-06-22T05:56:14;18.27;;;12.70;;
72924;SDS011;61070;50.794;7.054;2023-06-22T05:58:40;18.98;;;12.65;;
72924;SDS011;61070;50.794;7.054;2023-06-22T06:01:05;19.65;;;12.68;;
72924;SDS011;61070;50.794;7.054;2023-06-22T06:03:30;16.50;;;12.18;;
72924;SDS011;61070;50.794;7.054;2023-06-22T06:05:56;21.30;;;11.93;;
72924;SDS011;61070;50.794;7.054;2023-06-22T06:08:21;17.17;;;11.30;;
72924;SDS011;61070;50.794;7.054;2023-06-22T06:10:46;15.68;;;11.20;;
72924;SDS011;61070;50.794;7.054;2023-06-22T06:13:12;14.50;;;11.27;;
72924;SDS011;61070;50.794;7.054;2023-06-22T06:15:37;16.60;;;11.95;;
72924;SDS011;61070;50.794;7.054;2023-06-22T06:18:03;15.73;;;11.45;;
72924;SDS011;61070;50.794;7.054;2023-06-22T06:20:30;16.50;;;11.85;;
72924;SDS011;61070;50.794;7.054;2023-06-22T06:22:56;12.10;;;10.80;;
72924;SDS011;61070;50.794;7.054;2023-06-22T06:25:21;15.20;;;10.13;;
72924;SDS011;61070;50.794;7.054;2023-06-22T06:27:47;13.00;;;9.65;;
72924;SDS011;61070;50.794;7.054;2023-06-22T06:30:13;15.23;;;9.50;;
72924;SDS011;61070;50.794;7.054;2023-06-22T06:32:41;12.18;;;9.02;;
72924;SDS011;61070;50.794;7.054;2023-06-22T06:35:07;12.80;;;9.00;;
72924;SDS011;61070;50.794;7.054;2023-06-22T06:37:37;16.83;;;8.95;;
72924;SDS011;61070;50.794;7.054;2023-06-22T06:40:04;11.80;;;9.15;;
72924;SDS011;61070;50.794;7.054;2023-06-22T06:42:33;14.55;;;9.73;;
72924;SDS011;61070;50.794;7.054;2023-06-22T06:44:58;13.05;;;9.75;;
72924;SDS011;61070;50.794;7.054;2023-06-22T06:47:23;11.88;;;9.30;;
72924;SDS011;61070;50.794;7.054;2023-06-22T06:49:48;14.30;;;9.13;;
72924;SDS011;61070;50.794;7.054;2023-06-22T06:52:14;14.07;;;8.90;;
72924;SDS011;61070;50.794;7.054;2023-06-22T06:54:39;13.32;;;9.90;;
72924;SDS011;61070;50.794;7.054;2023-06-22T06:57:06;16.80;;;10.05;;
72924;SDS011;61070;50.794;7.054;2023-06-22T06:59:31;14.05;;;9.52;;
72924;SDS011;61070;50.794;7.054;2023-06-22T07:01:56;13.73;;;10.13;;
72924;SDS011;61070;50.794;7.054;2023-06-22T07:04:22;12.95;;;10.05;;
72924;SDS011;61070;50.794;7.054;2023-06-22T07:06:47;16.55;;;10.02;;
72924;SDS011;61070;50.794;7.054;2023-06-22T07:09:13;12.43;;;9.73;;
72924;SDS011;61070;50.794;7.054;2023-06-22T07:11:38;13.98;;;10.48;;
72924;SDS011;61070;50.794;7.054;2023-06-22T07:14:03;10.83;;;9.63;;
72924;SDS011;61070;50.794;7.054;2023-06-22T07:16:28;14.57;;;9.90;;
72924;SDS011;61070;50.794;7.054;2023-06-22T07:18:55;12.82;;;9.70;;
72924;SDS011;61070;50.794;7.054;2023-06-22T07:21:20;14.13;;;9.02;;
72924;SDS011;61070;50.794;7.054;2023-06-22T07:23:45;16.38;;;10.82;;
72924;SDS011;61070;50.794;7.054;2023-06-22T07:26:11;12.13;;;10.13;;
72924;SDS011;61070;50.794;7.054;2023-06-22T07:28:37;15.82;;;9.40;;
72924;SDS011;61070;50.794;7.054;2023-06-22T07:31:05;17.98;;;9.23;;
72924;SDS011;61070;50.794;7.054;2023-06-22T07:33:30;10.25;;;8.77;;
72924;SDS011;61070;50.794;7.054;2023-06-22T07:35:56;13.00;;;9.07;;
72924;SDS011;61070;50.794;7.054;2023-06-22T07:38:21;18.17;;;9.07;;
72924;SDS011;61070;50.794;7.054;2023-06-22T07:40:46;15.82;;;9.43;;
72924;SDS011;61070;50.794;7.054;2023-06-22T07:43:12;15.88;;;9.52;;
72924;SDS011;61070;50.794;7.054;2023-06-22T07:45:37;15.32;;;9.95;;
72924;SDS011;61070;50.794;7.054;2023-06-22T07:48:05;14.88;;;9.60;;
72924;SDS011;61070;50.794;7.054;2023-06-22T07:50:30;14.15;;;9.48;;
72924;SDS011;61070;50.794;7.054;2023-06-22T07:52:56;12.20;;;9.27;;
72924;SDS011;61070;50.794;7.054;2023-06-22T07:55:21;14.70;;;8.27;;
72924;SDS011;61070;50.794;7.054;2023-06-22T07:57:47;12.50;;;9.88;;
72924;SDS011;61070;50.794;7.054;2023-06-22T08:00:14;14.45;;;9.55;;
72924;SDS011;61070;50.794;7.054;2023-06-22T08:02:40;14.60;;;9.23;;
72924;SDS011;61070;50.794;7.054;2023-06-22T08:05:10;14.88;;;9.25;;
72924;SDS011;61070;50.794;7.054;2023-06-22T08:07:36;11.60;;;8.57;;
72924;SDS011;61070;50.794;7.054;2023-06-22T08:10:02;12.48;;;9.10;;
72924;SDS011;61070;50.794;7.054;2023-06-22T08:12:28;12.40;;;9.95;;
72924;SDS011;61070;50.794;7.054;2023-06-22T08:14:54;15.75;;;9.73;;
72924;SDS011;61070;50.794;7.054;2023-06-22T08:17:19;12.02;;;9.15;;
72924;SDS011;61070;50.794;7.054;2023-06-22T08:19:44;14.20;;;9.37;;
72924;SDS011;61070;50.794;7.054;2023-06-22T08:22:10;14.70;;;9.87;;
72924;SDS011;61070;50.794;7.054;2023-06-22T08:24:35;11.93;;;9.43;;
72924;SDS011;61070;50.794;7.054;2023-06-22T08:27:00;16.63;;;9.88;;
72924;SDS011;61070;50.794;7.054;2023-06-22T08:29:25;12.80;;;10.30;;
72924;SDS011;61070;50.794;7.054;2023-06-22T08:31:51;12.90;;;9.83;;
72924;SDS011;61070;50.794;7.054;2023-06-22T08:34:16;14.10;;;9.63;;
72924;SDS011;61070;50.794;7.054;2023-06-22T08:36:46;11.52;;;10.00;;
72924;SDS011;61070;50.794;7.054;2023-06-22T08:39:13;12.73;;;9.68;;
72924;SDS011;61070;50.794;7.054;2023-06-22T08:41:39;12.33;;;9.30;;
72924;SDS011;61070;50.794;7.054;2023-06-22T08:44:04;14.33;;;10.23;;
72924;SDS011;61070;50.794;7.054;2023-06-22T08:46:30;11.57;;;9.52;;
72924;SDS011;61070;50.794;7.054;2023-06-22T08:48:57;12.55;;;10.00;;
72924;SDS011;61070;50.794;7.054;2023-06-22T08:51:23;11.10;;;9.00;;
72924;SDS011;61070;50.794;7.054;2023-06-22T08:53:48;11.43;;;9.45;;
72924;SDS011;61070;50.794;7.054;2023-06-22T08:56:14;11.73;;;9.40;;
72924;SDS011;61070;50.794;7.054;2023-06-22T08:58:39;13.82;;;9.20;;
72924;SDS011;61070;50.794;7.054;2023-06-22T09:01:04;10.70;;;8.87;;
72924;SDS011;61070;50.794;7.054;2023-06-22T09:03:29;11.05;;;9.05;;
72924;SDS011;61070;50.794;7.054;2023-06-22T09:05:55;16.30;;;10.25;;
72924;SDS011;61070;50.794;7.054;2023-06-22T09:08:20;10.88;;;9.20;;
72924;SDS011;61070;50.794;7.054;2023-06-22T09:10:46;16.87;;;10.40;;
72924;SDS011;61070;50.794;7.054;2023-06-22T09:13:11;12.90;;;8.98;;
72924;SDS011;61070;50.794;7.054;2023-06-22T09:15:36;13.90;;;8.80;;
72924;SDS011;61070;50.794;7.054;2023-06-22T09:18:01;11.68;;;8.38;;
72924;SDS011;61070;50.794;7.054;2023-06-22T09:20:27;11.85;;;9.23;;
72924;SDS011;61070;50.794;7.054;2023-06-22T09:22:52;11.18;;;9.10;;
72924;SDS011;61070;50.794;7.054;2023-06-22T09:25:18;9.88;;;8.63;;
72924;SDS011;61070;50.794;7.054;2023-06-22T09:27:45;10.70;;;8.90;;
72924;SDS011;61070;50.794;7.054;2023-06-22T09:30:11;14.85;;;9.52;;
72924;SDS011;61070;50.794;7.054;2023-06-22T09:32:36;12.65;;;9.65;;
72924;SDS011;61070;50.794;7.054;2023-06-22T09:35:04;12.65;;;8.85;;
72924;SDS011;61070;50.794;7.054;2023-06-22T09:37:31;10.88;;;8.50;;
72924;SDS011;61070;50.794;7.054;2023-06-22T09:39:56;10.27;;;8.40;;
72924;SDS011;61070;50.794;7.054;2023-06-22T09:42:21;9.10;;;8.13;;
72924;SDS011;61070;50.794;7.054;2023-06-22T09:44:46;11.03;;;7.97;;
72924;SDS011;61070;50.794;7.054;2023-06-22T09:47:12;9.03;;;8.13;;
72924;SDS011;61070;50.794;7.054;2023-06-22T09:49:37;10.05;;;8.23;;
72924;SDS011;61070;50.794;7.054;2023-06-22T09:52:02;9.87;;;8.87;;
72924;SDS011;61070;50.794;7.054;2023-06-22T09:54:28;11.93;;;7.95;;
72924;SDS011;61070;50.794;7.054;2023-06-22T09:56:53;10.30;;;8.17;;
72924;SDS011;61070;50.794;7.054;2023-06-22T09:59:18;12.00;;;7.93;;
72924;SDS011;61070;50.794;7.054;2023-06-22T10:01:43;10.57;;;8.70;;
72924;SDS011;61070;50.794;7.054;2023-06-22T10:04:09;12.88;;;9.15;;
72924;SDS011;61070;50.794;7.054;2023-06-22T10:06:34;14.57;;;9.03;;
72924;SDS011;61070;50.794;7.054;2023-06-22T10:08:59;12.40;;;8.67;;
72924;SDS011;61070;50.794;7.054;2023-06-22T10:11:25;9.40;;;8.40;;
72924;SDS011;61070;50.794;7.054;2023-06-22T10:13:54;12.77;;;9.15;;
72924;SDS011;61070;50.794;7.054;2023-06-22T10:16:19;14.65;;;10.05;;
72924;SDS011;61070;50.794;7.054;2023-06-22T10:18:45;14.90;;;9.68;;
72924;SDS011;61070;50.794;7.054;2023-06-22T10:21:10;13.37;;;9.10;;
72924;SDS011;61070;50.794;7.054;2023-06-22T10:23:35;17.60;;;10.30;;
72924;SDS011;61070;50.794;7.054;2023-06-22T10:26:00;12.77;;;9.30;;
72924;SDS011;61070;50.794;7.054;2023-06-22T10:28:26;15.43;;;11.07;;
72924;SDS011;61070;50.794;7.054;2023-06-22T10:30:51;11.63;;;9.20;;
72924;SDS011;61070;50.794;7.054;2023-06-22T10:33:16;17.40;;;10.23;;
72924;SDS011;61070;50.794;7.054;2023-06-22T10:35:42;12.75;;;9.88;;
72924;SDS011;61070;50.794;7.054;2023-06-22T10:38:07;18.60;;;9.77;;
72924;SDS011;61070;50.794;7.054;2023-06-22T10:40:33;15.50;;;10.57;;
72924;SDS011;61070;50.794;7.054;2023-06-22T10:42:58;15.85;;;11.05;;
72924;SDS011;61070;50.794;7.054;2023-06-22T10:45:24;15.15;;;11.20;;
72924;SDS011;61070;50.794;7.054;2023-06-22T10:47:49;14.80;;;11.43;;
72924;SDS011;61070;50.794;7.054;2023-06-22T10:50:14;17.17;;;12.77;;
72924;SDS011;61070;50.794;7.054;2023-06-22T10:52:40;17.63;;;12.40;;
72924;SDS011;61070;50.794;7.054;2023-06-22T10:55:06;28.05;;;12.07;;
72924;SDS011;61070;50.794;7.054;2023-06-22T10:57:33;21.10;;;12.30;;
72924;SDS011;61070;50.794;7.054;2023-06-22T10:59:58;20.73;;;13.20;;
72924;SDS011;61070;50.794;7.054;2023-06-22T11:02:23;31.55;;;16.20;;
72924;SDS011;61070;50.794;7.054;2023-06-22T11:04:49;31.58;;;16.13;;
72924;SDS011;61070;50.794;7.054;2023-06-22T11:07:15;20.42;;;13.40;;
72924;SDS011;61070;50.794;7.054;2023-06-22T11:09:41;18.90;;;13.90;;
72924;SDS011;61070;50.794;7.054;2023-06-22T11:12:08;16.00;;;8.95;;
72924;SDS011;61070;50.794;7.054;2023-06-22T11:14:33;15.48;;;9.82;;
72924;SDS011;61070;50.794;7.054;2023-06-22T11:16:59;19.15;;;11.68;;
72924;SDS011;61070;50.794;7.054;2023-06-22T11:19:24;17.52;;;11.68;;
72924;SDS011;61070;50.794;7.054;2023-06-22T11:21:50;18.65;;;10.65;;
72924;SDS011;61070;50.794;7.054;2023-06-22T11:24:16;18.13;;;12.63;;
72924;SDS011;61070;50.794;7.054;2023-06-22T11:26:41;20.02;;;14.30;;
72924;SDS011;61070;50.794;7.054;2023-06-22T11:29:06;22.38;;;15.02;;
72924;SDS011;61070;50.794;7.054;2023-06-22T11:31:33;24.70;;;17.17;;
72924;SDS011;61070;50.794;7.054;2023-06-22T11:34:00;23.63;;;17.50;;
72924;SDS011;61070;50.794;7.054;2023-06-22T11:36:25;24.63;;;18.00;;
72924;SDS011;61070;50.794;7.054;2023-06-22T11:38:51;27.50;;;19.08;;
72924;SDS011;61070;50.794;7.054;2023-06-22T11:41:16;24.52;;;19.35;;
72924;SDS011;61070;50.794;7.054;2023-06-22T11:43:42;31.33;;;21.52;;
72924;SDS011;61070;50.794;7.054;2023-06-22T11:46:07;26.15;;;16.83;;
72924;SDS011;61070;50.794;7.054;2023-06-22T11:48:33;22.90;;;14.85;;
72924;SDS011;61070;50.794;7.054;2023-06-22T11:50:58;24.02;;;15.02;;
72924;SDS011;61070;50.794;7.054;2023-06-22T11:53:24;22.63;;;17.13;;
72924;SDS011;61070;50.794;7.054;2023-06-22T11:55:50;23.60;;;15.65;;
72924;SDS011;61070;50.794;7.054;2023-06-22T11:58:15;19.92;;;13.73;;
72924;SDS011;61070;50.794;7.054;2023-06-22T12:00:41;19.13;;;14.48;;
72924;SDS011;61070;50.794;7.054;2023-06-22T12:03:06;23.60;;;14.73;;
72924;SDS011;61070;50.794;7.054;2023-06-22T12:05:32;21.15;;;13.55;;
72924;SDS011;61070;50.794;7.054;2023-06-22T12:07:57;17.08;;;13.70;;
72924;SDS011;61070;50.794;7.054;2023-06-22T12:10:23;13.43;;;11.55;;
72924;SDS011;61070;50.794;7.054;2023-06-22T12:12:50;16.60;;;12.05;;
72924;SDS011;61070;50.794;7.054;2023-06-22T12:15:16;17.45;;;13.13;;
72924;SDS011;61070;50.794;7.054;2023-06-22T12:17:41;18.73;;;14.10;;
72924;SDS011;61070;50.794;7.054;2023-06-22T12:20:06;20.83;;;14.82;;
72924;SDS011;61070;50.794;7.054;2023-06-22T12:22:33;18.50;;;14.93;;
72924;SDS011;61070;50.794;7.054;2023-06-22T12:24:58;19.13;;;14.35;;
72924;SDS011;61070;50.794;7.054;2023-06-22T12:27:24;17.42;;;13.68;;
72924;SDS011;61070;50.794;7.054;2023-06-22T12:29:50;20.42;;;13.88;;
72924;SDS011;61070;50.794;7.054;2023-06-22T12:32:15;17.10;;;13.90;;
72924;SDS011;61070;50.794;7.054;2023-06-22T12:34:41;16.35;;;12.35;;
72924;SDS011;61070;50.794;7.054;2023-06-22T12:37:07;14.98;;;13.35;;
72924;SDS011;61070;50.794;7.054;2023-06-22T12:39:32;13.52;;;10.88;;
72924;SDS011;61070;50.794;7.054;2023-06-22T12:41:58;16.00;;;11.00;;
72924;SDS011;61070;50.794;7.054;2023-06-22T12:44:23;15.18;;;10.65;;
72924;SDS011;61070;50.794;7.054;2023-06-22T12:46:49;12.65;;;8.60;;
72924;SDS011;61070;50.794;7.054;2023-06-22T12:49:14;12.63;;;8.75;;
72924;SDS011;61070;50.794;7.054;2023-06-22T12:51:40;12.98;;;8.35;;
72924;SDS011;61070;50.794;7.054;2023-06-22T12:54:09;8.93;;;7.05;;
72924;SDS011;61070;50.794;7.054;2023-06-22T12:56:35;10.40;;;7.57;;
72924;SDS011;61070;50.794;7.054;2023-06-22T12:59:00;10.80;;;8.13;;
72924;SDS011;61070;50.794;7.054;2023-06-22T13:01:29;11.00;;;8.38;;
72924;SDS011;61070;50.794;7.054;2023-06-22T13:03:55;10.95;;;8.25;;
72924;SDS011;61070;50.794;7.054;2023-06-22T13:06:20;10.55;;;8.15;;
72924;SDS011;61070;50.794;7.054;2023-06-22T13:08:46;10.77;;;7.55;;
72924;SDS011;61070;50.794;7.054;2023-06-22T13:11:11;10.20;;;7.65;;
72924;SDS011;61070;50.794;7.054;2023-06-22T13:13:36;9.73;;;8.73;;
72924;SDS011;61070;50.794;7.054;2023-06-22T13:16:02;11.25;;;8.27;;
72924;SDS011;61070;50.794;7.054;2023-06-22T13:18:27;12.82;;;8.25;;
72924;SDS011;61070;50.794;7.054;2023-06-22T13:20:52;15.45;;;9.40;;
72924;SDS011;61070;50.794;7.054;2023-06-22T13:23:19;13.20;;;7.78;;
72924;SDS011;61070;50.794;7.054;2023-06-22T13:25:46;12.60;;;6.68;;
72924;SDS011;61070;50.794;7.054;2023-06-22T13:28:11;12.57;;;7.55;;
72924;SDS011;61070;50.794;7.054;2023-06-22T13:30:38;7.38;;;5.32;;
72924;SDS011;61070;50.794;7.054;2023-06-22T13:33:04;8.13;;;5.72;;
72924;SDS011;61070;50.794;7.054;2023-06-22T13:35:29;8.88;;;6.25;;
72924;SDS011;61070;50.794;7.054;2023-06-22T13:37:55;11.88;;;7.60;;
72924;SDS011;61070;50.794;7.054;2023-06-22T13:40:20;8.30;;;6.82;;
72924;SDS011;61070;50.794;7.054;2023-06-22T13:42:45;9.53;;;6.90;;
72924;SDS011;61070;50.794;7.054;2023-06-22T13:45:10;15.15;;;8.00;;
72924;SDS011;61070;50.794;7.054;2023-06-22T13:47:36;9.07;;;7.53;;
72924;SDS011;61070;50.794;7.054;2023-06-22T13:50:02;9.38;;;7.97;;
72924;SDS011;61070;50.794;7.054;2023-06-22T13:52:28;12.48;;;7.53;;
72924;SDS011;61070;50.794;7.054;2023-06-22T13:54:53;11.82;;;8.18;;
72924;SDS011;61070;50.794;7.054;2023-06-22T13:57:19;10.43;;;9.13;;
72924;SDS011;61070;50.794;7.054;2023-06-22T13:59:44;14.32;;;9.80;;
72924;SDS011;61070;50.794;7.054;2023-06-22T14:02:10;11.02;;;9.10;;
72924;SDS011;61070;50.794;7.054;2023-06-22T14:04:35;12.77;;;9.50;;
72924;SDS011;61070;50.794;7.054;2023-06-22T14:07:00;12.93;;;9.75;;
72924;SDS011;61070;50.794;7.054;2023-06-22T14:09:26;14.95;;;8.43;;
72924;SDS011;61070;50.794;7.054;2023-06-22T14:11:53;9.43;;;7.10;;
72924;SDS011;61070;50.794;7.054;2023-06-22T14:14:19;9.75;;;6.68;;
72924;SDS011;61070;50.794;7.054;2023-06-22T14:16:45;10.68;;;7.95;;
72924;SDS011;61070;50.794;7.054;2023-06-22T14:19:10;11.00;;;7.53;;
72924;SDS011;61070;50.794;7.054;2023-06-22T14:21:35;10.32;;;8.43;;
72924;SDS011;61070;50.794;7.054;2023-06-22T14:24:00;16.13;;;8.82;;
72924;SDS011;61070;50.794;7.054;2023-06-22T14:26:26;13.87;;;10.30;;
72924;SDS011;61070;50.794;7.054;2023-06-22T14:28:51;11.23;;;8.90;;
72924;SDS011;61070;50.794;7.054;2023-06-22T14:31:18;13.82;;;9.68;;
72924;SDS011;61070;50.794;7.054;2023-06-22T14:33:45;17.88;;;10.95;;
72924;SDS011;61070;50.794;7.054;2023-06-22T14:36:17;12.85;;;10.50;;